Time;durP1;ratioP1;P1;durP2;ratioP2;P2;SDS_P1;SDS_P2;PMS_P1;PMS_P2;Temp;Humidity;BMP_temperature;BMP_pressure;BME280_temperature;BME280_humidity;BME280_pressure;Samples;Min_cycle;Max_cycle;Signal;HPM_P1;HPM_P2
2022/01/03 00:01:55;;;;;;;6.53;1.20;;;;;;;-145.69;84.42;71915.81;5032930;28;20258;-73
2022/01/03 00:04:21;;;;;;;2.73;0.93;;;;;;;-145.69;83.95;71907.84;5034658;28;20199;-74
2022/01/03 00:06:50;;;;;;;6.73;1.50;;;;;;;-145.69;84.50;71911.84;5052731;28;20253;-74
2022/01/03 00:09:17;;;;;;;6.17;1.43;;;;;;;-145.69;85.58;71939.69;5052390;28;20253;-74
2022/01/03 00:11:43;;;;;;;4.50;1.27;;;;;;;-145.69;84.59;71933.72;5052190;28;20203;-74
2022/01/03 00:14:10;;;;;;;4.70;1.00;;;;;;;-145.69;83.86;71929.75;5052905;28;20199;-74
2022/01/03 00:16:36;;;;;;;3.70;1.10;;;;;;;-145.69;81.92;71899.88;5052485;28;20203;-75
2022/01/03 00:19:03;;;;;;;4.23;1.37;;;;;;;-145.69;83.51;71919.78;5053238;28;20253;-75
2022/01/03 00:21:40;;;;;;;6.80;1.00;;;;;;;-145.69;83.81;71943.69;5056621;28;20234;-74
2022/01/03 00:24:09;;;;;;;4.83;1.60;;;;;;;-145.69;83.33;71923.78;5056555;28;20226;-75
2022/01/03 00:26:37;;;;;;;3.80;0.80;;;;;;;-145.69;81.77;71907.84;5056657;28;20207;-74
2022/01/03 00:29:10;;;;;;;4.93;1.47;;;;;;;-145.69;83.43;71931.72;5056388;28;20223;-75
2022/01/03 00:31:38;;;;;;;5.97;1.00;;;;;;;-145.69;82.97;71923.78;5056114;28;20293;-74
2022/01/03 00:34:07;;;;;;;6.60;1.23;;;;;;;-145.69;83.04;71923.78;5056383;28;20260;-74
2022/01/03 00:36:35;;;;;;;6.63;1.30;;;;;;;-145.69;83.69;71927.75;5055904;28;20265;-74
2022/01/03 00:39:02;;;;;;;5.53;1.00;;;;;;;-145.69;83.04;71935.72;5056210;28;20214;-75
2022/01/03 00:41:30;;;;;;;6.17;1.10;;;;;;;-145.69;82.68;71929.75;5056048;28;20725;-73
2022/01/03 00:43:56;;;;;;;4.93;1.20;;;;;;;-145.69;83.21;71939.69;5056320;28;20199;-74
2022/01/03 00:46:23;;;;;;;3.23;0.83;;;;;;;-145.69;83.37;71939.69;5055897;28;20272;-75
2022/01/03 00:48:50;;;;;;;10.63;2.30;;;;;;;-145.69;83.97;71939.69;5056096;28;20556;-75
2022/01/03 00:51:19;;;;;;;7.37;1.43;;;;;;;-145.69;83.94;71939.69;5055909;28;20259;-75
2022/01/03 00:53:47;;;;;;;4.93;1.13;;;;;;;-145.69;83.63;71927.75;5055755;28;20569;-75
2022/01/03 00:56:16;;;;;;;4.83;1.17;;;;;;;-145.69;83.62;71925.75;5055990;28;20230;-74
2022/01/03 00:58:48;;;;;;;6.73;1.10;;;;;;;-145.69;82.49;71929.75;5056068;28;20590;-75
2022/01/03 01:01:18;;;;;;;8.67;1.30;;;;;;;-145.69;82.45;71935.72;5055847;28;20326;-74
2022/01/03 01:03:49;;;;;;;5.47;1.07;;;;;;;-145.69;83.21;71941.69;5055881;28;20203;-74
2022/01/03 01:06:16;;;;;;;3.37;1.00;;;;;;;-145.69;83.15;71935.72;5055627;28;20207;-75
2022/01/03 01:08:44;;;;;;;7.03;1.10;;;;;;;-145.69;82.10;71927.75;5055989;28;20204;-74
2022/01/03 01:11:11;;;;;;;6.17;1.60;;;;;;;-145.69;81.91;71927.75;5055602;28;20210;-74
2022/01/03 01:13:39;;;;;;;4.10;1.00;;;;;;;-145.69;82.63;71935.72;5055128;28;20257;-74
2022/01/03 01:16:09;;;;;;;4.73;1.17;;;;;;;-145.69;82.19;71939.69;5055474;28;20211;-74
2022/01/03 01:18:37;;;;;;;4.67;1.20;;;;;;;-145.69;82.31;71919.78;5055516;28;20234;-75
2022/01/03 01:21:04;;;;;;;7.90;1.23;;;;;;;-145.69;82.98;71923.78;5055572;28;20273;-74
2022/01/03 01:23:31;;;;;;;6.10;1.17;;;;;;;-145.69;84.14;71943.69;5055338;28;20207;-75
2022/01/03 01:28:42;;;;;;;6.40;1.17;;;;;;;-145.69;84.69;71947.66;5055359;28;20249;-75
2022/01/03 01:31:14;;;;;;;4.70;1.60;;;;;;;-145.69;84.92;71939.69;5050374;28;20219;-74
2022/01/03 01:33:44;;;;;;;5.47;1.70;;;;;;;-145.69;85.24;71937.69;5034993;28;20580;-74
2022/01/03 01:36:12;;;;;;;4.77;1.07;;;;;;;-145.69;84.70;71939.69;5044952;28;20196;-74
2022/01/03 01:38:40;;;;;;;7.63;1.50;;;;;;;-145.69;85.53;71941.69;5055316;28;20200;-74
2022/01/03 01:41:09;;;;;;;5.27;1.00;;;;;;;-145.69;84.13;71917.81;5054651;28;20276;-74
2022/01/03 01:43:37;;;;;;;6.63;1.30;;;;;;;-145.69;84.65;71927.75;5055307;28;20211;-74
2022/01/03 01:46:08;;;;;;;6.20;1.17;;;;;;;-145.69;84.97;71911.84;5055109;28;20210;-74
2022/01/03 01:48:37;;;;;;;6.00;1.30;;;;;;;-145.69;86.03;71935.72;5054958;28;20199;-75
2022/01/03 01:51:06;;;;;;;7.87;1.40;;;;;;;-145.69;86.68;71933.72;5054792;28;20265;-75
2022/01/03 01:53:40;;;;;;;4.67;1.37;;;;;;;-145.69;85.97;71935.72;5054652;28;20207;-75
2022/01/03 01:56:14;;;;;;;7.47;1.50;;;;;;;-145.69;86.21;71923.78;5055047;28;20203;-75
2022/01/03 01:58:59;;;;;;;2.77;1.00;;;;;;;-145.69;85.85;71905.88;5055035;28;20203;-73
2022/01/03 02:01:43;;;;;;;5.00;1.20;;;;;;;-145.69;87.01;71925.75;5054822;28;20223;-74
2022/01/03 02:04:18;;;;;;;6.33;1.23;;;;;;;-145.69;86.30;71923.78;5054432;28;20195;-73
2022/01/03 02:06:47;;;;;;;3.50;1.40;;;;;;;-145.69;86.73;71927.75;5054678;28;20222;-74
2022/01/03 02:09:19;;;;;;;10.57;1.20;;;;;;;-145.69;87.04;71923.78;5054117;28;20192;-74
2022/01/03 02:11:51;;;;;;;5.93;1.30;;;;;;;-145.69;85.63;71917.81;5054710;28;20228;-73
2022/01/03 02:14:19;;;;;;;12.93;1.50;;;;;;;-145.69;85.02;71927.75;5054408;28;20235;-74
2022/01/03 02:16:45;;;;;;;7.10;1.60;;;;;;;-145.69;85.58;71929.75;5054675;28;20203;-74
2022/01/03 02:19:12;;;;;;;6.07;1.40;;;;;;;-145.69;86.04;71937.69;5054601;28;20199;-74
2022/01/03 02:21:40;;;;;;;5.07;1.23;;;;;;;-145.69;85.55;71941.69;5054141;28;20230;-74
2022/01/03 02:24:08;;;;;;;6.47;1.30;;;;;;;-145.69;85.86;71935.72;5054439;28;20200;-74
2022/01/03 02:26:35;;;;;;;5.30;1.53;;;;;;;-145.69;85.74;71935.72;5054103;28;20203;-74
2022/01/03 02:29:02;;;;;;;4.93;1.30;;;;;;;-145.69;84.36;71927.75;5054212;28;20720;-73
2022/01/03 02:31:28;;;;;;;6.33;1.67;;;;;;;-145.69;85.73;71949.66;5054319;28;20214;-75
2022/01/03 02:33:55;;;;;;;9.27;1.37;;;;;;;-145.69;84.91;71939.69;5054134;28;20207;-74
2022/01/03 02:36:21;;;;;;;4.77;1.10;;;;;;;-145.69;84.26;71929.75;5053996;28;20202;-73
2022/01/03 02:38:49;;;;;;;6.37;1.57;;;;;;;-145.69;83.71;71919.78;5053734;28;20260;-74
2022/01/03 02:41:15;;;;;;;5.00;1.27;;;;;;;-145.69;84.23;71935.72;5053975;28;20231;-74
2022/01/03 02:43:42;;;;;;;2.47;1.10;;;;;;;-145.69;85.37;71947.66;5052896;28;20269;-74
2022/01/03 02:46:09;;;;;;;4.47;1.30;;;;;;;-145.69;84.92;71955.63;5039887;28;20555;-74
2022/01/03 02:48:36;;;;;;;5.50;1.17;;;;;;;-145.69;85.14;71955.63;5054044;28;20202;-74
2022/01/03 02:51:02;;;;;;;3.63;1.10;;;;;;;-145.69;84.72;71947.66;5053704;28;20200;-74
2022/01/03 02:53:29;;;;;;;5.83;1.20;;;;;;;-145.69;84.02;71943.69;5053927;28;20195;-74
2022/01/03 02:55:59;;;;;;;7.57;1.30;;;;;;;-145.69;83.48;71941.69;5052355;28;20207;-74
2022/01/03 02:58:25;;;;;;;11.30;1.53;;;;;;;-145.69;84.34;71953.63;5053110;28;20199;-73
2022/01/03 03:00:52;;;;;;;7.23;1.70;;;;;;;-145.69;83.75;71963.56;5053398;28;20211;-74
2022/01/03 03:03:21;;;;;;;4.10;1.50;;;;;;;-145.69;83.11;71939.69;5053567;28;20196;-73
2022/01/03 03:05:49;;;;;;;6.60;1.20;;;;;;;-145.69;83.68;71953.63;5053342;28;20677;-74
2022/01/03 03:08:17;;;;;;;6.83;1.40;;;;;;;-145.69;83.85;71961.59;5053543;28;20203;-74
2022/01/03 03:10:44;;;;;;;4.80;1.30;;;;;;;-145.69;82.89;71965.56;5053067;28;20646;-74
2022/01/03 03:13:12;;;;;;;4.93;1.13;;;;;;;-145.69;83.70;71975.50;5053618;28;20207;-75
2022/01/03 03:15:40;;;;;;;6.43;1.30;;;;;;;-145.69;81.89;71955.63;5053547;28;20249;-74
2022/01/03 03:18:09;;;;;;;4.13;1.17;;;;;;;-145.69;82.84;71973.53;5053202;28;20202;-74
2022/01/03 03:20:35;;;;;;;5.70;1.30;;;;;;;-145.69;81.72;71975.50;5052974;28;20672;-73
2022/01/03 03:23:02;;;;;;;4.37;1.40;;;;;;;-145.69;80.79;71961.59;5053142;28;20224;-75
2022/01/03 03:25:31;;;;;;;7.07;1.40;;;;;;;-145.69;80.55;71967.56;5052952;28;21290;-74
2022/01/03 03:28:01;;;;;;;5.17;1.33;;;;;;;-145.69;81.31;71973.53;5053050;28;20689;-74
2022/01/03 03:30:32;;;;;;;7.70;1.23;;;;;;;-145.69;82.33;71999.41;5053143;28;20254;-74
2022/01/03 03:33:02;;;;;;;7.37;1.40;;;;;;;-145.69;81.03;71989.44;5052672;28;20605;-74
2022/01/03 03:35:28;;;;;;;6.47;1.37;;;;;;;-145.69;80.93;71985.47;5053142;28;20203;-74
2022/01/03 03:37:55;;;;;;;5.70;0.93;;;;;;;-145.69;81.50;72003.38;5052578;28;20203;-74
2022/01/03 03:40:21;;;;;;;6.10;0.97;;;;;;;-145.69;81.16;71999.41;5049332;28;20253;-74
2022/01/03 03:42:48;;;;;;;6.50;1.20;;;;;;;-145.69;80.08;71987.47;5033089;28;20227;-74
2022/01/03 03:45:15;;;;;;;7.80;1.67;;;;;;;-145.69;80.46;72003.38;5032896;28;20262;-73
2022/01/03 03:47:43;;;;;;;8.23;1.53;;;;;;;-145.69;80.01;71995.41;5032896;28;20200;-74
2022/01/03 03:50:10;;;;;;;5.57;1.00;;;;;;;-145.69;80.74;72003.38;5032946;28;20204;-74
2022/01/03 03:52:36;;;;;;;6.87;1.50;;;;;;;-145.69;80.01;72011.34;5032699;28;20316;-73
2022/01/03 03:55:03;;;;;;;6.20;1.17;;;;;;;-145.69;80.29;72019.31;5032439;28;20204;-74
2022/01/03 03:57:29;;;;;;;9.87;2.00;;;;;;;-145.69;80.64;72015.31;5038059;28;20245;-74
2022/01/03 03:59:56;;;;;;;3.60;1.20;;;;;;;-145.69;81.29;72027.25;5052854;28;20222;-74
2022/01/03 04:02:22;;;;;;;8.60;1.23;;;;;;;-145.69;79.80;72011.34;5052580;28;20223;-74
2022/01/03 04:04:50;;;;;;;7.83;1.60;;;;;;;-145.69;80.63;72023.28;5052522;28;20249;-75
2022/01/03 04:07:17;;;;;;;7.17;1.33;;;;;;;-145.69;80.43;72013.31;5052681;28;20269;-74
2022/01/03 04:09:43;;;;;;;4.77;1.73;;;;;;;-145.69;80.93;72027.25;5052628;28;20199;-74
2022/01/03 04:12:10;;;;;;;6.67;1.23;;;;;;;-145.69;79.01;72007.34;5052286;28;20199;-74
2022/01/03 04:14:38;;;;;;;4.47;1.07;;;;;;;-145.69;78.96;72003.38;5052274;28;20196;-74
2022/01/03 04:17:05;;;;;;;7.73;1.13;;;;;;;-145.69;79.90;72013.31;5052633;28;20290;-74
2022/01/03 04:19:31;;;;;;;9.27;1.47;;;;;;;-145.69;79.65;72011.34;5052558;28;20550;-74
2022/01/03 04:21:59;;;;;;;9.83;1.23;;;;;;;-145.69;80.53;72029.25;5052495;28;20261;-74
2022/01/03 04:24:25;;;;;;;6.00;1.60;;;;;;;-145.69;80.74;72035.22;5052604;28;20203;-75
2022/01/03 04:26:52;;;;;;;7.57;1.17;;;;;;;-145.69;81.50;72039.19;5052379;28;20712;-75
2022/01/03 04:29:18;;;;;;;6.40;1.37;;;;;;;-145.69;80.75;72027.25;5051807;28;20199;-75
2022/01/03 04:31:45;;;;;;;7.77;1.30;;;;;;;-145.69;81.76;72033.22;5052507;28;20571;-74
2022/01/03 04:34:11;;;;;;;5.83;1.30;;;;;;;-145.69;81.53;72035.22;5052336;28;20215;-75
2022/01/03 04:36:38;;;;;;;10.57;1.73;;;;;;;-145.69;81.89;72031.25;5052308;28;20773;-75
2022/01/03 04:39:06;;;;;;;8.13;1.80;;;;;;;-145.69;82.29;72037.22;5052501;28;20610;-74
2022/01/03 04:41:33;;;;;;;9.53;1.20;;;;;;;-145.69;82.02;72025.28;5051951;28;20261;-74
2022/01/03 04:44:00;;;;;;;11.93;1.30;;;;;;;-145.69;82.94;72045.16;5052391;28;20210;-74
2022/01/03 04:46:26;;;;;;;11.10;1.60;;;;;;;-145.69;82.93;72053.13;5052243;28;20211;-74
2022/01/03 04:48:53;;;;;;;10.40;1.67;;;;;;;-145.69;81.95;72043.19;5052347;28;20559;-74
2022/01/03 04:51:19;;;;;;;5.33;1.23;;;;;;;-145.69;82.89;72055.13;5051827;28;20289;-74
2022/01/03 04:53:46;;;;;;;6.97;1.50;;;;;;;-145.69;82.28;72047.16;5052262;28;20600;-74
2022/01/03 04:56:15;;;;;;;13.07;1.57;;;;;;;-145.69;82.30;72041.19;5052339;28;20238;-73
2022/01/03 04:58:42;;;;;;;14.63;1.37;;;;;;;-145.69;81.92;72041.19;5051563;28;20608;-74
2022/01/03 05:01:09;;;;;;;5.57;1.30;;;;;;;-145.69;82.77;72047.16;5052028;28;20605;-74
2022/01/03 05:03:35;;;;;;;8.03;1.27;;;;;;;-145.69;82.78;72051.16;5052281;28;20238;-74
2022/01/03 05:06:02;;;;;;;6.03;1.20;;;;;;;-145.69;83.19;72069.06;5052556;28;20208;-74
2022/01/03 05:08:29;;;;;;;7.70;1.37;;;;;;;-145.69;83.19;72067.06;5055735;28;20616;-74
2022/01/03 05:10:56;;;;;;;7.17;1.37;;;;;;;-145.69;83.47;72065.06;5055752;28;20203;-74
2022/01/03 05:13:24;;;;;;;3.70;1.37;;;;;;;-145.69;83.72;72065.06;5055123;28;20202;-74
2022/01/03 05:15:50;;;;;;;9.00;2.13;;;;;;;-145.69;82.89;72055.13;5055602;28;20199;-74
2022/01/03 05:18:17;;;;;;;6.67;1.20;;;;;;;-145.69;82.13;72051.16;5055837;28;20199;-74
2022/01/03 05:20:43;;;;;;;7.00;1.50;;;;;;;-145.69;81.23;72037.22;5055433;28;20642;-73
2022/01/03 05:23:09;;;;;;;9.57;1.43;;;;;;;-145.69;81.07;72043.19;5055451;28;20277;-74
2022/01/03 05:25:36;;;;;;;4.87;1.23;;;;;;;-145.69;82.45;72059.09;5055510;28;20203;-74
2022/01/03 05:28:03;;;;;;;5.17;1.40;;;;;;;-145.69;81.50;72045.16;5055174;28;20195;-74
2022/01/03 05:30:31;;;;;;;11.13;1.40;;;;;;;-145.69;81.72;72047.16;5055018;28;20253;-74
2022/01/03 05:32:58;;;;;;;7.10;0.93;;;;;;;-145.69;82.87;72057.13;5055410;28;20210;-73
2022/01/03 05:35:24;;;;;;;1.90;0.97;;;;;;;-145.69;81.74;72043.19;5049493;28;20223;-73
2022/01/03 05:37:51;;;;;;;11.50;1.40;;;;;;;-145.69;81.61;72043.19;5035414;28;20196;-73
2022/01/03 05:40:17;;;;;;;3.93;1.67;;;;;;;-145.69;81.40;72035.22;5035036;28;20212;-74
2022/01/03 05:42:46;;;;;;;8.97;1.63;;;;;;;-145.69;82.06;72051.16;5035097;28;20745;-74
2022/01/03 05:45:13;;;;;;;6.33;1.17;;;;;;;-145.69;80.53;72037.22;5035339;28;20320;-74
2022/01/03 05:47:42;;;;;;;5.80;1.83;;;;;;;-145.69;80.88;72035.22;5034811;28;20208;-74
2022/01/03 05:50:10;;;;;;;7.03;1.80;;;;;;;-145.69;81.62;72049.16;5035109;28;20208;-74
2022/01/03 05:52:36;;;;;;;7.47;1.40;;;;;;;-145.69;82.16;72055.13;5034899;28;20561;-74
2022/01/03 05:55:03;;;;;;;7.10;1.23;;;;;;;-145.69;82.65;72067.06;5035071;28;20246;-74
2022/01/03 05:57:29;;;;;;;8.43;1.20;;;;;;;-145.69;81.81;72063.09;5043792;28;20207;-74
2022/01/03 05:59:56;;;;;;;8.93;1.30;;;;;;;-145.69;81.40;72047.16;5054654;28;20211;-74
2022/01/03 06:02:23;;;;;;;10.17;1.50;;;;;;;-145.69;82.49;72065.06;5054747;28;20228;-74
2022/01/03 06:04:57;;;;;;;8.10;1.30;;;;;;;-145.69;82.81;72065.06;5054688;28;20661;-74
2022/01/03 06:07:24;;;;;;;6.63;1.40;;;;;;;-145.69;82.61;72067.06;5054401;28;20214;-73
2022/01/03 06:09:51;;;;;;;6.60;1.33;;;;;;;-145.69;81.89;72047.16;5054571;28;20211;-73
2022/01/03 06:12:18;;;;;;;6.17;0.90;;;;;;;-145.69;81.37;72039.19;5054473;28;20682;-74
2022/01/03 06:14:45;;;;;;;8.70;1.30;;;;;;;-145.69;82.14;72047.16;5054499;28;20206;-74
2022/01/03 06:17:12;;;;;;;6.97;1.20;;;;;;;-145.69;81.77;72043.19;5054355;28;20253;-74
2022/01/03 06:19:38;;;;;;;4.30;1.13;;;;;;;-145.69;81.72;72039.19;5054546;28;20637;-73
2022/01/03 06:22:08;;;;;;;8.20;1.30;;;;;;;-145.69;82.49;72035.22;5054238;28;20198;-73
2022/01/03 06:24:35;;;;;;;7.87;1.60;;;;;;;-145.69;81.67;72033.22;5053978;28;20282;-74
2022/01/03 06:27:02;;;;;;;6.30;1.00;;;;;;;-145.69;81.93;72027.25;5053929;28;20191;-74
2022/01/03 06:29:28;;;;;;;3.33;1.20;;;;;;;-145.69;81.55;72027.25;5054509;28;20202;-73
2022/01/03 06:31:55;;;;;;;4.57;1.03;;;;;;;-145.69;82.01;72035.22;5054342;28;20203;-73
2022/01/03 06:34:21;;;;;;;8.80;1.47;;;;;;;-145.69;81.27;72023.28;5053819;28;20204;-73
2022/01/03 06:36:48;;;;;;;7.77;1.67;;;;;;;-145.69;80.93;72015.31;5054141;28;20547;-74
2022/01/03 06:39:16;;;;;;;8.10;1.50;;;;;;;-145.69;81.13;72017.31;5054094;28;20808;-73
2022/01/03 06:41:43;;;;;;;5.83;1.53;;;;;;;-145.69;82.81;72035.22;5054238;28;20282;-74
2022/01/03 06:44:10;;;;;;;8.53;1.77;;;;;;;-145.69;82.87;72041.19;5053782;28;20628;-73
2022/01/03 06:46:36;;;;;;;11.57;1.57;;;;;;;-145.69;83.04;72047.16;5053998;28;20199;-74
2022/01/03 06:49:06;;;;;;;5.60;1.20;;;;;;;-145.69;82.60;72035.22;5053821;28;20658;-73
2022/01/03 06:51:34;;;;;;;6.17;1.53;;;;;;;-145.69;80.86;72023.28;5053236;28;20319;-74
2022/01/03 06:54:01;;;;;;;7.30;1.50;;;;;;;-145.69;82.69;72045.16;5053882;28;20195;-74
2022/01/03 06:56:29;;;;;;;5.20;1.40;;;;;;;-145.69;82.06;72035.22;5053631;28;20191;-73
2022/01/03 06:58:56;;;;;;;8.90;1.27;;;;;;;-145.69;82.87;72035.22;5053746;28;20199;-74
2022/01/03 07:01:22;;;;;;;5.53;1.23;;;;;;;-145.69;82.70;72033.22;5053547;28;20204;-73
2022/01/03 07:03:49;;;;;;;14.33;1.67;;;;;;;-145.69;82.83;72037.22;5053353;28;20284;-74
2022/01/03 07:06:15;;;;;;;7.50;1.07;;;;;;;-145.69;82.83;72049.16;5053336;28;20195;-73
2022/01/03 07:08:42;;;;;;;4.67;1.03;;;;;;;-145.69;80.47;72023.28;5053764;28;20195;-73
2022/01/03 07:11:08;;;;;;;8.00;1.50;;;;;;;-145.69;79.85;72005.38;5053635;28;20195;-74
2022/01/03 07:13:43;;;;;;;4.27;1.20;;;;;;;-145.69;79.75;72013.31;5053564;28;20203;-73
2022/01/03 07:18:57;;;;;;;6.97;1.10;;;;;;;-145.69;80.41;72027.25;5053440;28;20190;-73
2022/01/03 07:21:24;;;;;;;8.77;1.33;;;;;;;-145.69;81.74;72047.16;5052986;28;20195;-74
2022/01/03 07:23:50;;;;;;;5.73;1.70;;;;;;;-145.69;82.65;72059.09;5053317;28;20234;-74
2022/01/03 07:26:17;;;;;;;9.83;1.33;;;;;;;-145.69;81.72;72045.16;5052978;28;20207;-73
2022/01/03 07:28:45;;;;;;;11.80;1.53;;;;;;;-145.69;80.81;72033.22;5052777;28;20203;-73
2022/01/03 07:31:11;;;;;;;12.10;1.40;;;;;;;-145.69;81.80;72051.16;5052923;28;20211;-74
2022/01/03 07:33:38;;;;;;;7.33;1.33;;;;;;;-145.69;78.76;72013.31;5053083;28;20658;-73
2022/01/03 07:36:05;;;;;;;8.93;2.20;;;;;;;-145.69;79.12;72001.38;5036769;28;20391;-74
2022/01/03 07:38:31;;;;;;;7.27;1.83;;;;;;;-145.69;78.73;72021.28;5033033;28;20738;-73
2022/01/03 07:40:59;;;;;;;9.93;1.27;;;;;;;-145.69;79.03;72007.34;5033065;28;20634;-73
2022/01/03 07:43:25;;;;;;;6.13;1.20;;;;;;;-145.69;78.68;72011.34;5033022;28;20238;-73
2022/01/03 07:45:53;;;;;;;13.47;1.90;;;;;;;-145.69;79.93;72025.28;5032905;28;20651;-73
2022/01/03 07:48:19;;;;;;;5.43;1.07;;;;;;;-145.69;78.29;72001.38;5032950;28;20821;-73
2022/01/03 07:50:46;;;;;;;8.43;1.40;;;;;;;-145.69;78.63;72013.31;5033164;28;20200;-74
2022/01/03 07:53:12;;;;;;;9.90;2.07;;;;;;;-145.69;79.65;72025.28;5032669;28;20725;-74
2022/01/03 07:55:39;;;;;;;6.67;1.50;;;;;;;-145.69;80.46;72035.22;5032977;28;20206;-73
2022/01/03 07:58:05;;;;;;;5.27;1.53;;;;;;;-145.69;80.63;72035.22;5047059;28;20195;-74
2022/01/03 08:00:32;;;;;;;5.20;1.60;;;;;;;-145.69;81.11;72035.22;5052934;28;20205;-73
2022/01/03 08:03:00;;;;;;;13.30;2.00;;;;;;;-145.69;81.12;72023.28;5052406;28;20226;-73
2022/01/03 08:05:26;;;;;;;6.13;1.20;;;;;;;-145.69;80.73;72021.28;5052883;28;20297;-73
2022/01/03 08:07:53;;;;;;;6.13;1.60;;;;;;;-145.69;81.23;72013.31;5052801;28;20199;-73
2022/01/03 08:10:20;;;;;;;6.00;1.30;;;;;;;-145.69;79.66;72001.38;5052474;28;20210;-73
2022/01/03 08:12:47;;;;;;;5.43;1.30;;;;;;;-145.69;80.15;72009.34;5052604;28;20265;-73
2022/01/03 08:15:13;;;;;;;8.20;1.23;;;;;;;-145.69;80.86;71999.41;5052592;28;20663;-75
2022/01/03 08:17:44;;;;;;;4.20;1.30;;;;;;;-145.69;79.19;71991.44;5052613;28;20206;-73
2022/01/03 08:20:12;;;;;;;4.17;1.40;;;;;;;-145.69;80.04;71993.44;5052706;28;20293;-74
2022/01/03 08:22:39;;;;;;;7.37;1.00;;;;;;;-145.69;78.69;71987.47;5052547;28;20200;-74
2022/01/03 08:25:06;;;;;;;3.43;1.10;;;;;;;-145.69;79.58;71989.44;5052665;28;20207;-73
2022/01/03 08:27:33;;;;;;;8.37;1.20;;;;;;;-145.69;79.27;71989.44;5052121;28;20240;-74
2022/01/03 08:29:59;;;;;;;6.60;1.07;;;;;;;-145.69;79.04;71983.47;5052637;28;20203;-74
2022/01/03 08:32:26;;;;;;;6.10;1.50;;;;;;;-145.69;79.67;71987.47;5052291;28;20199;-73
2022/01/03 08:34:53;;;;;;;3.20;1.10;;;;;;;-145.69;79.87;71997.41;5052573;28;20247;-74
2022/01/03 08:37:21;;;;;;;7.27;1.00;;;;;;;-145.69;78.80;71987.47;5052525;28;20196;-73
2022/01/03 08:39:47;;;;;;;6.50;1.23;;;;;;;-145.69;79.40;71999.41;5052210;28;20858;-74
2022/01/03 08:42:14;;;;;;;6.57;1.00;;;;;;;-145.69;78.65;71991.44;5054641;28;20662;-74
2022/01/03 08:44:40;;;;;;;6.82;1.67;;;;;;;-145.69;80.00;71997.41;5054855;28;20467;-74
2022/01/03 08:47:07;;;;;;;10.73;1.30;;;;;;;-145.69;78.74;71993.44;5056080;28;20257;-74
2022/01/03 08:49:33;;;;;;;6.37;1.27;;;;;;;-145.69;77.96;71987.47;5056040;28;20199;-74
2022/01/03 08:52:01;;;;;;;8.97;1.97;;;;;;;-145.69;78.33;71985.47;5055705;28;20234;-74
2022/01/03 08:54:29;;;;;;;6.17;1.30;;;;;;;-145.69;78.23;71983.47;5055943;28;20203;-74
2022/01/03 08:56:55;;;;;;;8.57;1.33;;;;;;;-145.69;78.47;71991.44;5056128;28;20207;-74
2022/01/03 08:59:22;;;;;;;4.33;1.13;;;;;;;-145.69;78.02;71973.53;5055984;28;20204;-74
2022/01/03 09:01:48;;;;;;;6.57;1.57;;;;;;;-145.69;78.32;71967.56;5055943;28;20191;-74
2022/01/03 09:04:14;;;;;;;3.03;1.10;;;;;;;-145.69;79.61;71963.56;5055960;28;20230;-74
2022/01/03 09:06:41;;;;;;;13.67;3.33;;;;;;;-145.69;78.76;71955.63;5055727;28;20208;-75
2022/01/03 09:09:07;;;;;;;8.43;1.27;;;;;;;-145.69;78.91;71963.56;5055813;28;20257;-74
2022/01/03 09:11:35;;;;;;;5.77;1.57;;;;;;;-145.69;79.26;71949.66;5055899;28;20609;-75
2022/01/03 09:14:02;;;;;;;6.23;1.30;;;;;;;-145.69;78.82;71945.66;5055897;28;20204;-73
2022/01/03 09:16:28;;;;;;;8.83;1.80;;;;;;;-145.69;78.90;71929.75;5055831;28;20257;-74
2022/01/03 09:18:55;;;;;;;9.30;2.10;;;;;;;-145.69;78.16;71923.78;5055719;28;20196;-73
2022/01/03 09:21:21;;;;;;;8.27;1.50;;;;;;;-145.69;77.43;71923.78;5055677;28;20203;-73
2022/01/03 09:23:52;;;;;;;6.23;1.57;;;;;;;-145.69;78.15;71915.81;5054946;28;20219;-73
2022/01/03 09:29:05;;;;;;;7.43;1.40;;;;;;;-145.69;78.60;71899.88;5053325;28;20215;-73
2022/01/03 09:31:34;;;;;;;5.67;1.10;;;;;;;-145.69;78.01;71907.84;5049324;28;20202;-74
2022/01/03 09:34:02;;;;;;;10.07;1.43;;;;;;;-145.69;78.65;71903.88;5055217;28;20253;-74
2022/01/03 09:36:30;;;;;;;10.07;1.50;;;;;;;-145.69;78.45;71872.03;5055490;28;20203;-73
2022/01/03 09:38:57;;;;;;;3.67;1.00;;;;;;;-145.69;78.34;71887.94;5055132;28;20210;-74
2022/01/03 09:41:25;;;;;;;3.20;0.87;;;;;;;-145.69;77.90;71891.94;5055153;28;20203;-73
2022/01/03 09:43:53;;;;;;;4.90;1.00;;;;;;;-145.69;78.22;71891.94;5055031;28;20586;-73
2022/01/03 09:46:24;;;;;;;5.03;1.27;;;;;;;-145.69;78.49;71891.94;5055092;28;20203;-73
2022/01/03 09:48:52;;;;;;;6.87;1.20;;;;;;;-145.69;78.67;71883.97;5055268;28;20203;-74
2022/01/03 09:51:20;;;;;;;5.20;0.90;;;;;;;-145.69;79.60;71895.91;5054760;28;20239;-73
2022/01/03 09:53:49;;;;;;;5.83;1.43;;;;;;;-145.69;78.46;71899.88;5054318;28;20199;-73
2022/01/03 09:56:17;;;;;;;5.33;1.13;;;;;;;-145.69;79.61;71889.94;5054973;28;20199;-73
2022/01/03 09:58:44;;;;;;;8.53;1.60;;;;;;;-145.69;79.14;71889.94;5054569;28;20203;-73
2022/01/03 10:01:11;;;;;;;7.00;1.37;;;;;;;-145.69;78.84;71868.06;5054790;28;20203;-75
2022/01/03 10:03:41;;;;;;;8.63;1.67;;;;;;;-145.69;80.08;71876.00;5054788;28;20231;-74
2022/01/03 10:06:07;;;;;;;7.43;1.17;;;;;;;-145.69;78.87;71876.00;5054948;28;20200;-75
2022/01/03 10:08:34;;;;;;;12.33;2.07;;;;;;;-145.69;77.66;71866.06;5054706;28;20654;-75
2022/01/03 10:11:00;;;;;;;6.20;1.17;;;;;;;-145.69;77.64;71870.03;5054799;28;20558;-73
2022/01/03 10:13:27;;;;;;;6.33;1.20;;;;;;;-145.69;77.13;71864.06;5054489;28;20203;-74
2022/01/03 10:15:53;;;;;;;2.97;1.27;;;;;;;-145.69;77.52;71874.03;5054423;28;20257;-73
2022/01/03 10:18:20;;;;;;;6.50;1.10;;;;;;;-145.69;77.59;71864.06;5054483;28;20659;-73
2022/01/03 10:20:48;;;;;;;7.93;2.00;;;;;;;-145.69;76.63;71864.06;5054490;28;20203;-72
2022/01/03 10:23:17;;;;;;;7.70;1.30;;;;;;;-145.69;77.51;71860.09;5050843;28;20207;-74
2022/01/03 10:25:46;;;;;;;4.83;1.37;;;;;;;-145.69;75.67;71866.06;5052400;28;20203;-73
2022/01/03 10:28:22;;;;;;;3.13;1.10;;;;;;;-145.69;76.43;71854.13;5053809;28;20235;-74
2022/01/03 10:30:49;;;;;;;7.63;1.57;;;;;;;-145.69;75.93;71852.13;5053995;28;20293;-74
2022/01/03 10:33:17;;;;;;;7.37;1.43;;;;;;;-145.69;75.72;71854.13;5054404;28;20606;-74
2022/01/03 10:35:45;;;;;;;6.23;0.93;;;;;;;-145.69;75.72;71844.16;5053960;28;20203;-74
2022/01/03 10:38:31;;;;;;;6.43;1.00;;;;;;;-145.69;75.72;71814.31;5053980;28;20261;-74
2022/01/03 10:41:11;;;;;;;7.67;1.70;;;;;;;-145.69;73.64;71816.31;5053897;28;20599;-74
2022/01/03 10:43:37;;;;;;;7.47;1.30;;;;;;;-145.69;73.21;71800.38;5054006;28;20309;-73
2022/01/03 10:46:16;;;;;;;9.27;1.30;;;;;;;-145.69;73.19;71804.38;5053642;28;20238;-75
2022/01/03 10:48:43;;;;;;;9.43;1.40;;;;;;;-145.69;71.28;71796.41;5054112;28;20302;-72
2022/01/03 10:51:09;;;;;;;8.83;1.20;;;;;;;-145.69;72.39;71806.34;5053309;28;20199;-74
2022/01/03 10:53:39;;;;;;;7.63;1.30;;;;;;;-145.69;71.87;71794.41;5034100;28;20208;-74
2022/01/03 10:56:31;;;;;;;10.23;1.20;;;;;;;-145.69;71.17;71794.41;5033827;28;20208;-74
2022/01/03 10:59:01;;;;;;;4.83;1.20;;;;;;;-145.69;72.02;71798.41;5033880;28;20200;-74
2022/01/03 11:01:29;;;;;;;6.70;1.13;;;;;;;-145.69;69.93;71790.44;5033556;28;20659;-73
2022/01/03 11:03:58;;;;;;;3.57;0.83;;;;;;;-145.69;70.59;71790.44;5051010;28;20219;-73
2022/01/03 11:06:46;;;;;;;5.20;1.43;;;;;;;-145.69;70.93;71782.47;5053357;28;20203;-74
2022/01/03 11:12:17;;;;;;;5.13;1.00;;;;;;;-145.69;69.73;71784.47;5053454;28;20665;-73
2022/01/03 11:14:44;;;;;;;5.97;1.20;;;;;;;-145.69;68.59;71784.47;5053397;28;20264;-73
2022/01/03 11:17:23;;;;;;;7.23;1.43;;;;;;;-145.69;69.02;71778.50;5053283;28;20279;-74
2022/01/03 11:19:49;;;;;;;4.97;1.23;;;;;;;-145.69;69.47;71784.47;5053426;28;20203;-73
2022/01/03 11:22:44;;;;;;;5.33;1.07;;;;;;;-145.69;69.25;71780.50;5039368;28;20204;-74
2022/01/03 11:25:12;;;;;;;7.23;1.77;;;;;;;-145.69;69.17;71772.53;5033117;28;20587;-73
2022/01/03 11:27:40;;;;;;;2.90;1.10;;;;;;;-145.69;67.78;71760.59;5033434;28;20211;-73
2022/01/03 11:30:09;;;;;;;8.33;1.17;;;;;;;-145.69;67.20;71764.56;5033292;28;20226;-73
2022/01/03 11:32:37;;;;;;;8.40;1.87;;;;;;;-145.69;67.05;71758.59;5038702;28;20187;-73